createdAt,value
2019-03-17T00:00:41.918Z,11.18
2019-03-17T00:03:15.483Z,11.21
2019-03-17T00:04:38.737Z,11.19
2019-03-17T00:06:02.236Z,11.23
2019-03-17T00:07:25.512Z,11.28
2019-03-17T00:08:29.701Z,11.24
2019-03-17T00:09:53.060Z,11.23
2019-03-17T00:11:15.965Z,11.18
2019-03-17T00:12:39.374Z,11.13
2019-03-17T00:15:25.674Z,11.04
2019-03-17T00:16:29.493Z,11.03
2019-03-17T00:17:52.611Z,11.08
2019-03-17T00:18:56.688Z,11.04
2019-03-17T00:20:19.942Z,11.03
2019-03-17T00:21:23.783Z,11.03
2019-03-17T00:22:47.257Z,11.00
2019-03-17T00:23:51.345Z,11.04
2019-03-17T00:24:55.248Z,11.00
2019-03-17T00:25:59.848Z,10.98
2019-03-17T00:27:03.684Z,10.96
2019-03-17T00:28:08.152Z,11.01
2019-03-17T00:29:11.981Z,11.03
2019-03-17T00:30:16.256Z,10.99
2019-03-17T00:31:24.198Z,10.96
2019-03-17T00:32:26.516Z,10.94
2019-03-17T00:35:32.271Z,10.91
2019-03-17T00:36:36.098Z,10.90
2019-03-17T00:37:40.896Z,10.86
2019-03-17T00:38:45.079Z,10.83
2019-03-17T00:39:49.103Z,10.83
2019-03-17T00:40:53.492Z,10.86
2019-03-17T00:41:57.572Z,10.81
2019-03-17T00:43:01.973Z,10.78
2019-03-17T00:44:06.444Z,10.74
2019-03-17T00:45:11.793Z,10.72
2019-03-17T00:46:15.815Z,10.71
2019-03-17T00:47:20.233Z,10.70
2019-03-17T00:48:24.310Z,10.69
2019-03-17T00:49:28.130Z,10.80
2019-03-17T00:50:32.020Z,10.76
2019-03-17T00:51:36.179Z,10.77
2019-03-17T00:52:40.847Z,10.74
2019-03-17T00:53:44.994Z,10.74
2019-03-17T00:54:49.156Z,10.71
2019-03-17T00:55:53.303Z,10.72
2019-03-17T00:56:57.126Z,10.75
2019-03-17T00:58:01.617Z,10.77
2019-03-17T00:59:05.772Z,10.81
2019-03-17T01:00:10.816Z,10.82
2019-03-17T01:01:15.037Z,10.81
2019-03-17T01:02:19.116Z,10.79
2019-03-17T01:03:23.198Z,10.76
2019-03-17T01:04:27.093Z,10.79
2019-03-17T01:05:31.572Z,10.72
2019-03-17T01:06:35.784Z,10.70
2019-03-17T01:07:40.464Z,10.72
2019-03-17T01:08:44.855Z,10.68
2019-03-17T01:09:48.923Z,10.67
2019-03-17T01:10:53.317Z,10.67
2019-03-17T01:13:39.525Z,10.60
2019-03-17T01:15:02.752Z,10.66
2019-03-17T01:16:25.770Z,10.69
2019-03-17T01:17:30.034Z,10.76
2019-03-17T01:18:34.531Z,10.68
2019-03-17T01:19:38.753Z,10.66
2019-03-17T01:22:43.801Z,10.63
2019-03-17T01:24:07.150Z,10.62
2019-03-17T01:25:11.307Z,10.67
2019-03-17T01:26:15.147Z,10.66
2019-03-17T01:27:19.733Z,10.63
2019-03-17T01:28:42.927Z,10.68
2019-03-17T01:29:46.756Z,10.68
2019-03-17T01:30:50.859Z,10.74
2019-03-17T01:31:55.544Z,10.68
2019-03-17T01:33:00.136Z,10.67
2019-03-17T01:34:04.359Z,10.66
2019-03-17T01:35:27.320Z,10.66
2019-03-17T01:36:50.938Z,10.63
2019-03-17T01:37:55.702Z,10.62
2019-03-17T01:39:00.401Z,10.60
2019-03-17T01:40:04.551Z,10.56
2019-03-17T01:41:08.525Z,10.54
2019-03-17T01:42:12.501Z,10.50
2019-03-17T01:44:25.916Z,10.47
2019-03-17T01:45:30.747Z,10.45
2019-03-17T01:46:34.570Z,10.45
2019-03-17T01:47:38.836Z,10.42
2019-03-17T01:49:01.988Z,10.39
2019-03-17T01:52:08.724Z,10.32
2019-03-17T01:53:12.715Z,10.26
2019-03-17T01:54:16.793Z,10.23
2019-03-17T01:55:21.172Z,10.22
2019-03-17T01:56:25.348Z,10.20
2019-03-17T01:57:29.680Z,10.16
2019-03-17T01:58:33.865Z,10.15
2019-03-17T01:59:37.760Z,10.13
2019-03-17T02:00:42.155Z,10.11
2019-03-17T02:01:46.380Z,10.10
2019-03-17T02:02:50.215Z,10.08
2019-03-17T02:03:54.712Z,10.07
2019-03-17T02:04:58.777Z,10.04
2019-03-17T02:06:02.924Z,10.02
2019-03-17T02:07:06.751Z,10.00
2019-03-17T02:08:10.638Z,9.97
2019-03-17T02:09:15.046Z,9.95
2019-03-17T02:10:19.115Z,9.93
2019-03-17T02:11:23.579Z,9.91
2019-03-17T02:12:28.147Z,9.90
2019-03-17T02:13:32.207Z,9.89
2019-03-17T02:14:36.532Z,9.87
2019-03-17T02:15:40.427Z,9.86
2019-03-17T02:16:44.562Z,9.84
2019-03-17T02:17:48.642Z,9.81
2019-03-17T02:20:02.827Z,9.80
2019-03-17T02:21:26.377Z,9.77
2019-03-17T02:22:49.329Z,9.76
2019-03-17T02:23:53.699Z,9.73
2019-03-17T02:24:57.808Z,9.70
2019-03-17T02:28:03.495Z,9.68
2019-03-17T02:30:36.435Z,9.62
2019-03-17T02:32:00.169Z,9.58
2019-03-17T02:33:23.523Z,9.57
2019-03-17T02:34:27.683Z,9.54
2019-03-17T02:35:38.545Z,9.54
2019-03-17T02:36:38.166Z,9.53
2019-03-17T02:37:42.241Z,9.53
2019-03-17T02:38:46.064Z,9.50
2019-03-17T02:39:49.904Z,9.51
2019-03-17T02:40:54.032Z,9.51
2019-03-17T02:41:58.194Z,9.50
2019-03-17T02:43:02.518Z,9.50
2019-03-17T02:44:06.664Z,9.49
2019-03-17T02:45:10.930Z,9.47
2019-03-17T02:46:15.245Z,9.47
2019-03-17T02:47:19.409Z,9.45
2019-03-17T02:48:23.223Z,9.44
2019-03-17T02:49:27.874Z,9.43
2019-03-17T02:50:31.790Z,9.41
2019-03-17T02:51:36.363Z,9.41
2019-03-17T02:52:40.313Z,9.39
2019-03-17T02:53:44.448Z,9.38
2019-03-17T02:54:48.541Z,9.37
2019-03-17T02:55:52.682Z,9.34
2019-03-17T02:56:57.091Z,9.32
2019-03-17T02:58:01.245Z,9.31
2019-03-17T02:59:05.469Z,9.30
2019-03-17T03:00:28.915Z,9.30
2019-03-17T03:01:32.746Z,9.28
2019-03-17T03:02:37.737Z,9.25
2019-03-17T03:03:41.929Z,9.24
2019-03-17T03:04:46.420Z,9.23
2019-03-17T03:06:09.317Z,9.21
2019-03-17T03:07:32.657Z,9.18
2019-03-17T03:08:36.872Z,9.16
2019-03-17T03:10:00.146Z,9.13
2019-03-17T03:11:04.526Z,9.12
2019-03-17T03:12:08.356Z,9.10
2019-03-17T03:13:31.985Z,9.09
2019-03-17T03:14:36.064Z,9.07
2019-03-17T03:15:59.533Z,9.04
2019-03-17T03:17:22.976Z,9.03
2019-03-17T03:18:46.000Z,9.03
2019-03-17T03:21:37.703Z,8.95
2019-03-17T03:23:01.252Z,8.94
2019-03-17T03:24:24.269Z,8.92
2019-03-17T03:25:47.162Z,8.88
2019-03-17T03:27:10.603Z,8.86
2019-03-17T03:28:15.008Z,8.83
2019-03-17T03:29:38.347Z,8.80
2019-03-17T03:30:42.753Z,8.79
2019-03-17T03:33:48.226Z,8.78
2019-03-17T03:35:11.566Z,8.75
2019-03-17T03:36:34.800Z,8.76
2019-03-17T03:37:39.322Z,8.73
2019-03-17T03:38:43.720Z,8.69
2019-03-17T03:39:47.790Z,8.68
2019-03-17T03:40:51.700Z,8.67
2019-03-17T03:41:56.027Z,8.65
2019-03-17T03:43:00.406Z,8.65
2019-03-17T03:44:04.723Z,8.63
2019-03-17T03:45:09.223Z,8.63
2019-03-17T03:46:13.963Z,8.62
2019-03-17T03:47:18.039Z,8.61
2019-03-17T03:48:22.220Z,8.60
2019-03-17T03:49:26.642Z,8.61
2019-03-17T03:50:30.511Z,8.58
2019-03-17T03:51:35.174Z,8.57
2019-03-17T03:52:39.390Z,8.57
2019-03-17T03:53:43.474Z,8.55
2019-03-17T03:54:47.617Z,8.52
2019-03-17T03:55:51.837Z,8.49
2019-03-17T03:56:56.067Z,8.47
2019-03-17T03:58:00.457Z,8.46
2019-03-17T03:59:16.052Z,8.45
2019-03-17T04:00:20.287Z,8.45
2019-03-17T04:01:43.311Z,8.43
2019-03-17T04:03:06.334Z,8.44
2019-03-17T04:04:10.850Z,8.40
2019-03-17T04:05:15.053Z,8.40
2019-03-17T04:06:38.407Z,8.38
2019-03-17T04:09:47.108Z,8.37
2019-03-17T04:11:10.385Z,8.34
2019-03-17T04:12:14.590Z,8.30
2019-03-17T04:13:37.964Z,8.29
2019-03-17T04:15:00.845Z,8.28
2019-03-17T04:16:04.816Z,8.27
2019-03-17T04:17:08.655Z,8.26
2019-03-17T04:18:12.885Z,8.24
2019-03-17T04:19:16.785Z,8.25
2019-03-17T04:20:21.310Z,8.23
2019-03-17T04:21:25.387Z,8.21
2019-03-17T04:22:48.667Z,8.22
2019-03-17T04:24:11.611Z,8.21
2019-03-17T04:27:16.793Z,8.19
2019-03-17T04:28:21.480Z,8.15
2019-03-17T04:29:25.617Z,8.14
2019-03-17T04:30:48.840Z,8.13
2019-03-17T04:32:11.796Z,8.10
2019-03-17T04:33:34.679Z,8.11
2019-03-17T04:36:02.246Z,8.09
2019-03-17T04:37:06.431Z,8.06
2019-03-17T04:38:10.893Z,8.00
2019-03-17T04:39:34.073Z,7.98
2019-03-17T04:42:02.015Z,7.96
2019-03-17T04:43:25.045Z,7.99
2019-03-17T04:44:29.159Z,7.96
2019-03-17T04:47:15.563Z,7.89
2019-03-17T04:48:19.707Z,7.88
2019-03-17T04:49:24.032Z,7.87
2019-03-17T04:50:28.496Z,7.88
2019-03-17T04:51:32.581Z,7.91
2019-03-17T04:52:37.020Z,7.90
2019-03-17T04:53:41.347Z,7.88
2019-03-17T04:54:45.667Z,7.87
2019-03-17T04:55:49.497Z,7.87
2019-03-17T04:56:53.838Z,7.87
2019-03-17T04:57:58.460Z,7.87
2019-03-17T04:59:02.786Z,7.86
2019-03-17T05:00:07.745Z,7.87
2019-03-17T05:01:11.818Z,7.87
2019-03-17T05:02:15.900Z,7.87
2019-03-17T05:03:20.044Z,7.87
2019-03-17T05:04:24.359Z,7.89
2019-03-17T05:05:28.419Z,7.91
2019-03-17T05:06:32.501Z,7.88
2019-03-17T05:07:36.689Z,7.89
2019-03-17T05:08:40.800Z,7.89
2019-03-17T05:09:44.908Z,7.89
2019-03-17T05:10:49.115Z,7.86
2019-03-17T05:11:53.214Z,7.83
2019-03-17T05:14:39.368Z,7.82
2019-03-17T05:15:43.515Z,7.82
2019-03-17T05:16:47.697Z,7.79
2019-03-17T05:18:10.983Z,7.78
2019-03-17T05:19:34.177Z,7.77
2019-03-17T05:20:57.788Z,7.75
2019-03-17T05:22:02.309Z,7.73
2019-03-17T05:24:48.195Z,7.72
2019-03-17T05:25:52.298Z,7.70
2019-03-17T05:27:15.606Z,7.70
2019-03-17T05:30:01.504Z,7.70
2019-03-17T05:31:25.099Z,7.67
2019-03-17T05:34:17.548Z,7.65
2019-03-17T05:35:40.568Z,7.66
2019-03-17T05:36:44.927Z,7.64
2019-03-17T05:37:49.117Z,7.63
2019-03-17T05:39:12.141Z,7.64
2019-03-17T05:40:16.358Z,7.64
2019-03-17T05:41:20.460Z,7.64
2019-03-17T05:42:24.561Z,7.65
2019-03-17T05:43:29.282Z,7.67
2019-03-17T05:44:33.742Z,7.73
2019-03-17T05:45:37.809Z,7.70
2019-03-17T05:46:41.911Z,7.71
2019-03-17T05:47:45.998Z,7.68
2019-03-17T05:48:50.163Z,7.66
2019-03-17T05:49:54.233Z,7.64
2019-03-17T05:50:58.620Z,7.67
2019-03-17T05:52:02.589Z,7.71
2019-03-17T05:53:06.749Z,7.74
2019-03-17T05:54:10.563Z,7.68
2019-03-17T05:55:14.384Z,7.66
2019-03-17T05:56:18.280Z,7.68
2019-03-17T05:57:22.439Z,7.76
2019-03-17T05:58:26.517Z,7.75
2019-03-17T05:59:30.660Z,7.71
2019-03-17T06:00:34.800Z,7.67
2019-03-17T06:01:39.110Z,7.70
2019-03-17T06:02:43.774Z,7.73
2019-03-17T06:03:47.915Z,7.73
2019-03-17T06:04:52.234Z,7.75
2019-03-17T06:05:56.807Z,7.73
2019-03-17T06:07:00.708Z,7.75
2019-03-17T06:08:23.984Z,7.79
2019-03-17T06:09:27.816Z,7.80
2019-03-17T06:11:55.749Z,7.79
2019-03-17T06:13:00.268Z,7.80
2019-03-17T06:16:06.782Z,7.85
2019-03-17T06:17:30.067Z,7.88
2019-03-17T06:18:34.216Z,7.90
2019-03-17T06:19:57.341Z,7.93
2019-03-17T06:21:20.467Z,7.99
2019-03-17T06:22:43.784Z,7.98
2019-03-17T06:24:07.152Z,7.98
2019-03-17T06:25:30.813Z,7.97
2019-03-17T06:26:35.331Z,8.00
2019-03-17T06:27:39.328Z,8.03
2019-03-17T06:28:43.147Z,8.07
2019-03-17T06:29:47.225Z,8.11
2019-03-17T06:30:51.396Z,8.18
2019-03-17T06:32:14.432Z,8.23
2019-03-17T06:33:18.889Z,8.28
2019-03-17T06:34:24.432Z,8.35
2019-03-17T06:35:29.455Z,8.38
2019-03-17T06:36:33.520Z,8.43
2019-03-17T06:37:37.727Z,8.48
2019-03-17T06:39:01.629Z,8.53
2019-03-17T06:40:05.719Z,8.57
2019-03-17T06:41:28.663Z,8.64
2019-03-17T06:42:51.951Z,8.67
2019-03-17T06:43:56.453Z,8.69
2019-03-17T06:45:00.955Z,8.71
2019-03-17T06:46:45.323Z,8.74
2019-03-17T06:47:49.490Z,8.76
2019-03-17T06:48:54.392Z,8.80
2019-03-17T06:49:58.470Z,8.80
2019-03-17T06:51:02.944Z,8.84
2019-03-17T06:52:26.297Z,8.88
2019-03-17T06:53:56.339Z,8.92
2019-03-17T06:54:55.505Z,8.99
2019-03-17T06:56:18.536Z,9.02
2019-03-17T06:57:41.730Z,9.04
2019-03-17T06:58:45.893Z,9.09
2019-03-17T06:59:50.965Z,9.14
2019-03-17T07:01:14.156Z,9.17
2019-03-17T07:02:18.600Z,9.23
2019-03-17T07:03:41.501Z,9.29
2019-03-17T07:05:04.909Z,9.34
2019-03-17T07:06:28.189Z,9.43
2019-03-17T07:07:51.618Z,9.52
2019-03-17T07:09:14.654Z,9.63
2019-03-17T07:10:37.947Z,9.73
2019-03-17T07:12:01.277Z,9.86
2019-03-17T07:13:25.222Z,9.98
2019-03-17T07:14:29.559Z,10.13
2019-03-17T07:15:33.632Z,10.26
2019-03-17T07:16:37.975Z,10.39
2019-03-17T07:17:42.099Z,10.49
2019-03-17T07:18:46.189Z,10.62
2019-03-17T07:19:50.766Z,10.76
2019-03-17T07:20:55.290Z,10.87
2019-03-17T07:21:59.591Z,11.00
2019-03-17T07:23:03.676Z,11.13
2019-03-17T07:24:07.728Z,11.25
2019-03-17T07:25:12.224Z,11.37
2019-03-17T07:26:16.120Z,11.50
2019-03-17T07:27:20.106Z,11.60
2019-03-17T07:28:24.564Z,11.71
2019-03-17T07:29:28.465Z,11.81
2019-03-17T07:30:32.367Z,11.90
2019-03-17T07:31:36.427Z,12.00
2019-03-17T07:32:41.041Z,12.09
2019-03-17T07:33:45.457Z,12.16
2019-03-17T07:34:49.780Z,12.24
2019-03-17T07:35:53.940Z,12.32
2019-03-17T07:36:57.760Z,12.42
2019-03-17T07:38:01.696Z,12.51
2019-03-17T07:39:12.164Z,12.55
2019-03-17T07:40:13.561Z,12.59
2019-03-17T07:41:17.798Z,12.67
2019-03-17T07:42:21.963Z,12.72
2019-03-17T07:43:26.852Z,12.74
2019-03-17T07:44:50.009Z,12.80
2019-03-17T07:45:54.536Z,12.83
2019-03-17T07:49:02.092Z,12.91
2019-03-17T07:50:46.149Z,13.06
2019-03-17T07:52:09.411Z,13.02
2019-03-17T07:53:32.842Z,13.06
2019-03-17T07:54:56.088Z,13.10
2019-03-17T07:55:59.920Z,13.13
2019-03-17T07:57:22.888Z,13.16
2019-03-17T07:59:36.808Z,13.26
2019-03-17T08:00:41.047Z,13.31
2019-03-17T08:01:44.880Z,13.35
2019-03-17T08:03:28.380Z,13.42
2019-03-17T08:04:41.980Z,13.49
2019-03-17T08:05:57.321Z,13.57
2019-03-17T08:07:20.865Z,13.64
2019-03-17T08:08:25.242Z,13.73
2019-03-17T08:09:50.366Z,13.83
2019-03-17T08:10:54.617Z,13.90
2019-03-17T08:12:18.381Z,14.02
2019-03-17T08:13:41.829Z,14.06
2019-03-17T08:14:46.030Z,14.13
2019-03-17T08:16:09.617Z,14.18
2019-03-17T08:17:33.521Z,14.22
2019-03-17T08:18:56.761Z,14.30
2019-03-17T08:20:00.928Z,14.30
2019-03-17T08:21:05.167Z,14.34
2019-03-17T08:22:09.740Z,14.38
2019-03-17T08:23:33.375Z,14.42
2019-03-17T08:24:38.203Z,14.45
2019-03-17T08:26:22.004Z,14.51
2019-03-17T08:27:26.449Z,14.57
2019-03-17T08:28:30.783Z,14.67
2019-03-17T08:29:35.212Z,14.69
2019-03-17T08:30:52.165Z,14.70
2019-03-17T08:31:45.801Z,14.70
2019-03-17T08:32:50.159Z,14.73
2019-03-17T08:33:55.094Z,14.77
2019-03-17T08:34:59.638Z,14.74
2019-03-17T08:36:03.850Z,14.71
2019-03-17T08:37:08.257Z,14.73
2019-03-17T08:38:21.254Z,14.73
2019-03-17T08:39:18.402Z,14.73
2019-03-17T08:40:22.875Z,14.72
2019-03-17T08:41:26.933Z,14.69
2019-03-17T08:42:31.264Z,14.68
2019-03-17T08:43:35.304Z,14.67
2019-03-17T08:44:39.150Z,14.66
2019-03-17T08:45:43.748Z,14.66
2019-03-17T08:47:07.371Z,14.66
2019-03-17T08:48:11.856Z,14.69
2019-03-17T08:49:15.703Z,14.74
2019-03-17T08:50:38.843Z,14.78
2019-03-17T08:51:43.355Z,14.82
2019-03-17T08:54:29.541Z,14.91
2019-03-17T08:55:33.628Z,14.96
2019-03-17T08:56:37.826Z,14.98
2019-03-17T08:58:01.489Z,15.00
2019-03-17T09:00:34.290Z,15.09
2019-03-17T09:01:38.734Z,15.14
2019-03-17T09:03:01.869Z,15.18
2019-03-17T09:04:05.929Z,15.24
2019-03-17T09:05:49.399Z,15.28
2019-03-17T09:07:13.039Z,15.34
2019-03-17T09:09:59.445Z,15.47
2019-03-17T09:11:22.478Z,15.52
2019-03-17T09:12:45.542Z,15.58
2019-03-17T09:14:09.002Z,15.64
2019-03-17T09:17:16.168Z,15.70
2019-03-17T09:18:39.573Z,15.75
2019-03-17T09:19:43.469Z,15.77
2019-03-17T09:21:07.082Z,15.78
2019-03-17T09:22:11.499Z,15.81
2019-03-17T09:23:15.342Z,15.86
2019-03-17T09:24:19.821Z,15.92
2019-03-17T09:25:24.257Z,15.96
2019-03-17T09:26:28.625Z,15.98
2019-03-17T09:27:33.030Z,15.98
2019-03-17T09:28:37.342Z,15.95
2019-03-17T09:29:41.591Z,15.98
2019-03-17T09:30:46.458Z,15.93
2019-03-17T09:31:50.596Z,15.90
2019-03-17T09:32:54.740Z,15.84
2019-03-17T09:33:59.568Z,15.81
2019-03-17T09:35:03.792Z,15.78
2019-03-17T09:36:07.765Z,15.72
2019-03-17T09:37:11.916Z,15.67
2019-03-17T09:38:15.815Z,15.78
2019-03-17T09:39:19.976Z,15.63
2019-03-17T09:40:23.882Z,15.55
2019-03-17T09:41:28.038Z,15.54
2019-03-17T09:42:32.193Z,15.46
2019-03-17T09:43:36.772Z,15.42
2019-03-17T09:44:41.436Z,15.35
2019-03-17T09:45:46.016Z,15.31
2019-03-17T09:47:09.341Z,15.28
2019-03-17T09:48:32.817Z,15.25
2019-03-17T09:49:56.350Z,15.22
2019-03-17T09:52:42.542Z,15.17
2019-03-17T09:54:06.324Z,15.15
2019-03-17T09:55:29.677Z,15.13
2019-03-17T09:56:53.340Z,15.13
2019-03-17T09:59:40.254Z,15.11
2019-03-17T10:01:03.398Z,15.10
2019-03-17T10:04:08.413Z,15.10
2019-03-17T10:05:52.142Z,15.08
2019-03-17T10:06:56.629Z,15.08
2019-03-17T10:08:20.063Z,15.08
2019-03-17T10:09:24.658Z,15.07
2019-03-17T10:10:48.323Z,15.06
2019-03-17T10:12:11.674Z,15.05
2019-03-17T10:14:57.765Z,15.02
2019-03-17T10:16:21.044Z,15.01
2019-03-17T10:17:44.754Z,14.99
2019-03-17T10:20:31.407Z,14.97
2019-03-17T10:21:35.563Z,14.97
2019-03-17T10:22:39.929Z,14.96
2019-03-17T10:23:44.380Z,14.96
2019-03-17T10:24:48.468Z,14.95
2019-03-17T10:25:52.713Z,14.97
2019-03-17T10:26:56.885Z,14.96
2019-03-17T10:28:00.717Z,14.97
2019-03-17T10:29:04.937Z,14.95
2019-03-17T10:30:10.343Z,14.96
2019-03-17T10:31:14.416Z,14.95
2019-03-17T10:32:37.573Z,14.96
2019-03-17T10:34:01.185Z,14.96
2019-03-17T10:35:44.674Z,14.96
2019-03-17T10:36:48.807Z,14.95
2019-03-17T10:37:52.639Z,14.93
2019-03-17T10:38:57.093Z,14.93
2019-03-17T10:40:20.520Z,14.92
2019-03-17T10:41:43.785Z,14.93
2019-03-17T10:43:07.138Z,14.93
2019-03-17T10:46:12.516Z,14.96
2019-03-17T10:47:36.065Z,14.98
2019-03-17T10:50:22.421Z,15.02
2019-03-17T10:51:45.303Z,15.04
2019-03-17T10:52:49.574Z,15.05
2019-03-17T10:54:14.953Z,15.09
2019-03-17T10:55:37.989Z,15.12
2019-03-17T10:57:01.780Z,15.14
2019-03-17T10:58:25.055Z,15.14
2019-03-17T10:59:47.947Z,15.15
2019-03-17T11:01:03.905Z,15.13
2019-03-17T11:02:08.048Z,15.12
2019-03-17T11:03:12.193Z,15.11
2019-03-17T11:04:16.640Z,15.11
2019-03-17T11:05:20.888Z,15.12
2019-03-17T11:06:24.971Z,15.12
2019-03-17T11:07:29.297Z,15.12
2019-03-17T11:08:34.249Z,15.12
2019-03-17T11:09:38.407Z,15.13
2019-03-17T11:11:01.655Z,15.14
2019-03-17T11:12:24.857Z,15.18
2019-03-17T11:13:29.294Z,15.16
2019-03-17T11:14:52.437Z,15.16
2019-03-17T11:16:15.331Z,15.17
2019-03-17T11:17:39.094Z,15.19
2019-03-17T11:19:02.126Z,15.21
2019-03-17T11:20:25.484Z,15.25
2019-03-17T11:21:48.935Z,15.26
2019-03-17T11:22:53.345Z,15.34
2019-03-17T11:23:57.535Z,15.28
2019-03-17T11:26:11.690Z,15.23
2019-03-17T11:27:15.524Z,15.21
2019-03-17T11:28:38.677Z,15.22
2019-03-17T11:29:42.761Z,15.25
2019-03-17T11:31:27.162Z,15.27
2019-03-17T11:32:31.653Z,15.27
2019-03-17T11:33:54.805Z,15.27
2019-03-17T11:35:18.067Z,15.28
2019-03-17T11:36:21.909Z,15.29
2019-03-17T11:37:45.589Z,15.29
2019-03-17T11:38:49.780Z,15.30
2019-03-17T11:40:13.481Z,15.31
2019-03-17T11:41:17.493Z,15.33
2019-03-17T11:42:21.326Z,15.41
2019-03-17T11:43:44.694Z,15.45
2019-03-17T11:44:49.309Z,15.47
2019-03-17T11:45:53.559Z,15.51
2019-03-17T11:46:57.638Z,15.54
2019-03-17T11:48:01.816Z,15.56
2019-03-17T11:49:06.030Z,15.58
2019-03-17T11:50:10.940Z,15.60
2019-03-17T11:51:15.186Z,15.63
2019-03-17T11:52:19.163Z,15.63
2019-03-17T11:53:23.191Z,15.63
2019-03-17T11:54:27.704Z,15.60
2019-03-17T11:55:32.005Z,15.59
2019-03-17T11:56:36.697Z,15.58
2019-03-17T11:57:40.973Z,15.56
2019-03-17T11:58:45.470Z,15.56
2019-03-17T11:59:49.871Z,15.55
2019-03-17T12:00:54.416Z,15.54
2019-03-17T12:01:58.654Z,15.52
2019-03-17T12:03:02.858Z,15.50
2019-03-17T12:04:07.343Z,15.48
2019-03-17T12:05:12.137Z,15.47
2019-03-17T12:06:16.227Z,15.46
2019-03-17T12:07:20.422Z,15.47
2019-03-17T12:08:24.564Z,15.46
2019-03-17T12:09:29.695Z,15.44
2019-03-17T12:10:33.749Z,15.40
2019-03-17T12:11:38.085Z,15.40
2019-03-17T12:12:42.166Z,15.38
2019-03-17T12:13:46.395Z,15.37
2019-03-17T12:14:50.539Z,15.34
2019-03-17T12:15:54.706Z,15.32
2019-03-17T12:16:59.184Z,15.31
2019-03-17T12:18:22.215Z,15.29
2019-03-17T12:21:27.968Z,15.23
2019-03-17T12:22:50.938Z,15.17
2019-03-17T12:24:14.578Z,15.14
2019-03-17T12:25:38.034Z,15.12
2019-03-17T12:26:42.551Z,15.10
2019-03-17T12:28:26.030Z,15.08
2019-03-17T12:31:12.648Z,14.99
2019-03-17T12:32:36.436Z,14.98
2019-03-17T12:33:40.628Z,14.98
2019-03-17T12:34:45.066Z,14.78
2019-03-17T12:36:08.520Z,14.64
2019-03-17T12:37:32.041Z,14.49
2019-03-17T12:38:55.341Z,14.40
2019-03-17T12:40:02.803Z,14.33
2019-03-17T12:41:05.769Z,14.19
2019-03-17T12:42:10.304Z,14.06
2019-03-17T12:43:14.628Z,13.97
2019-03-17T12:44:18.777Z,13.88
2019-03-17T12:45:23.171Z,13.80
2019-03-17T12:46:27.761Z,13.74
2019-03-17T12:47:32.093Z,13.55
2019-03-17T12:48:36.522Z,13.49
2019-03-17T12:49:40.348Z,13.18
2019-03-17T12:50:44.421Z,13.11
2019-03-17T12:51:48.264Z,12.86
2019-03-17T12:52:52.669Z,12.71
2019-03-17T12:53:56.749Z,12.64
2019-03-17T12:55:01.572Z,12.58
2019-03-17T12:56:05.481Z,12.50
2019-03-17T12:57:09.627Z,12.40
2019-03-17T12:58:14.972Z,12.22
2019-03-17T12:59:19.164Z,12.14
2019-03-17T13:00:23.179Z,12.08
2019-03-17T13:01:27.568Z,12.03
2019-03-17T13:02:32.140Z,12.05
2019-03-17T13:03:36.587Z,12.03
2019-03-17T13:05:00.421Z,12.03
2019-03-17T13:06:04.743Z,12.07
2019-03-17T13:07:28.321Z,12.04
2019-03-17T13:08:51.340Z,12.02
2019-03-17T13:09:55.845Z,12.01
2019-03-17T13:11:18.918Z,11.99
2019-03-17T13:12:42.187Z,11.90
2019-03-17T13:14:06.887Z,11.81
2019-03-17T13:18:04.217Z,11.61
2019-03-17T13:19:08.122Z,11.60
2019-03-17T13:20:31.480Z,11.60
2019-03-17T13:21:35.899Z,11.67
2019-03-17T13:22:40.392Z,11.63
2019-03-17T13:23:44.474Z,11.66
2019-03-17T13:26:11.590Z,11.60
2019-03-17T13:27:15.424Z,11.63
2019-03-17T13:28:20.165Z,11.64
2019-03-17T13:29:24.265Z,11.46
2019-03-17T13:30:47.550Z,11.37
2019-03-17T13:32:10.861Z,11.35
2019-03-17T13:33:15.084Z,11.34
2019-03-17T13:34:19.155Z,11.34
2019-03-17T13:35:23.479Z,11.34
2019-03-17T13:36:27.746Z,11.35
2019-03-17T13:37:31.572Z,11.38
2019-03-17T13:38:35.910Z,11.43
2019-03-17T13:39:40.055Z,11.41
2019-03-17T13:40:44.202Z,11.44
2019-03-17T13:41:48.429Z,11.50
2019-03-17T13:42:52.327Z,11.52
2019-03-17T13:43:56.942Z,11.54
2019-03-17T13:45:01.110Z,11.56
2019-03-17T13:46:05.325Z,11.65
2019-03-17T13:47:09.428Z,11.62
2019-03-17T13:48:13.741Z,11.50
2019-03-17T13:49:17.960Z,11.58
2019-03-17T13:50:22.190Z,11.60
2019-03-17T13:51:26.098Z,11.63
2019-03-17T13:52:30.516Z,11.68
2019-03-17T13:53:34.757Z,11.70
2019-03-17T13:54:39.196Z,11.73
2019-03-17T13:57:06.753Z,11.81
2019-03-17T13:58:30.316Z,11.87
2019-03-17T13:59:34.452Z,11.90
2019-03-17T14:00:38.446Z,11.95
2019-03-17T14:01:42.355Z,12.00
2019-03-17T14:02:46.952Z,12.00
2019-03-17T14:04:10.152Z,12.01
2019-03-17T14:05:53.869Z,12.03
2019-03-17T14:06:57.784Z,12.06
2019-03-17T14:08:01.934Z,12.11
2019-03-17T14:09:46.245Z,12.10
2019-03-17T14:10:50.677Z,12.10
2019-03-17T14:11:55.289Z,12.13
2019-03-17T14:12:59.115Z,12.14
2019-03-17T14:14:22.056Z,12.17
2019-03-17T14:15:45.031Z,12.18
2019-03-17T14:17:08.051Z,12.23
2019-03-17T14:18:12.025Z,12.26
2019-03-17T14:19:15.851Z,12.32
2019-03-17T14:20:20.906Z,12.37
2019-03-17T14:21:26.183Z,12.40
2019-03-17T14:22:30.467Z,12.32
2019-03-17T14:23:34.891Z,12.49
2019-03-17T14:26:02.667Z,12.55
2019-03-17T14:27:26.148Z,12.62
2019-03-17T14:28:29.979Z,12.66
2019-03-17T14:29:52.930Z,12.71
2019-03-17T14:32:20.133Z,12.78
2019-03-17T14:33:43.078Z,12.80
2019-03-17T14:36:10.447Z,12.88
2019-03-17T14:37:14.845Z,12.89
2019-03-17T14:38:19.021Z,12.91
2019-03-17T14:39:23.067Z,12.93
2019-03-17T14:40:27.931Z,12.95
2019-03-17T14:41:32.201Z,12.95
2019-03-17T14:42:36.737Z,12.96
2019-03-17T14:43:41.110Z,12.92
2019-03-17T14:44:45.125Z,12.95
2019-03-17T14:45:49.237Z,12.95
2019-03-17T14:46:53.722Z,12.97
2019-03-17T14:47:57.897Z,12.96
2019-03-17T14:49:02.802Z,12.97
2019-03-17T14:50:08.929Z,12.97
2019-03-17T14:51:12.961Z,12.98
2019-03-17T14:52:17.613Z,13.02
2019-03-17T14:53:21.840Z,13.01
2019-03-17T14:54:32.956Z,13.04
2019-03-17T14:55:37.936Z,13.00
2019-03-17T14:56:42.832Z,12.98
2019-03-17T14:57:47.155Z,12.97
2019-03-17T14:58:52.076Z,12.98
2019-03-17T14:59:56.249Z,12.97
2019-03-17T15:01:00.512Z,12.96
2019-03-17T15:02:24.554Z,12.94
2019-03-17T15:03:28.638Z,12.95
2019-03-17T15:04:52.195Z,12.96
2019-03-17T15:06:15.468Z,12.95
2019-03-17T15:07:19.644Z,12.93
2019-03-17T15:10:07.295Z,12.93
2019-03-17T15:11:30.920Z,12.96
2019-03-17T15:12:54.144Z,13.01
2019-03-17T15:13:58.571Z,13.00
2019-03-17T15:15:02.715Z,13.03
2019-03-17T15:16:07.472Z,13.02
2019-03-17T15:17:30.997Z,13.04
2019-03-17T15:22:19.819Z,13.12
2019-03-17T15:23:23.982Z,13.14
2019-03-17T15:25:50.992Z,13.17
2019-03-17T15:27:14.064Z,13.14
2019-03-17T15:31:42.702Z,13.21
2019-03-17T15:32:46.670Z,13.21
2019-03-17T15:33:51.281Z,13.20
2019-03-17T15:34:55.464Z,13.21
2019-03-17T15:37:23.253Z,13.08
2019-03-17T15:38:27.877Z,13.19
2019-03-17T15:39:32.051Z,13.18
2019-03-17T15:40:36.269Z,13.19
2019-03-17T15:41:40.493Z,13.19
2019-03-17T15:42:44.557Z,13.18
2019-03-17T15:43:48.516Z,13.18
2019-03-17T15:44:52.643Z,13.15
2019-03-17T15:45:56.759Z,13.13
2019-03-17T15:47:00.989Z,13.10
2019-03-17T15:48:05.260Z,13.09
2019-03-17T15:49:28.557Z,13.06
2019-03-17T15:50:51.940Z,13.03
2019-03-17T15:52:15.278Z,12.99
2019-03-17T15:53:38.771Z,12.95
2019-03-17T15:54:42.933Z,12.92
2019-03-17T15:56:06.393Z,12.86
2019-03-17T15:57:11.019Z,12.80
2019-03-17T15:58:34.035Z,12.75
2019-03-17T15:59:57.460Z,12.71
2019-03-17T16:01:21.123Z,12.70
2019-03-17T16:02:25.709Z,12.63
2019-03-17T16:03:49.350Z,12.58
2019-03-17T16:05:12.324Z,12.57
2019-03-17T16:06:37.239Z,12.57
2019-03-17T16:08:00.552Z,12.56
2019-03-17T16:09:44.004Z,12.54
2019-03-17T16:12:49.215Z,12.53
2019-03-17T16:17:18.794Z,12.55
2019-03-17T16:19:52.124Z,12.46
2019-03-17T16:21:15.154Z,12.42
2019-03-17T16:22:38.556Z,12.40
2019-03-17T16:23:42.391Z,12.40
2019-03-17T16:24:46.225Z,12.39
2019-03-17T16:26:09.455Z,12.39
2019-03-17T16:27:32.339Z,12.39
2019-03-17T16:28:36.194Z,12.40
2019-03-17T16:29:40.024Z,12.39
2019-03-17T16:32:45.053Z,12.34
2019-03-17T16:33:49.565Z,12.29
2019-03-17T16:34:53.885Z,12.26
2019-03-17T16:35:57.796Z,12.21
2019-03-17T16:37:01.772Z,12.21
2019-03-17T16:38:05.768Z,12.16
2019-03-17T16:39:09.751Z,12.11
2019-03-17T16:40:14.840Z,12.08
2019-03-17T16:41:18.923Z,12.07
2019-03-17T16:42:22.824Z,12.05